createdAt,value
2023-04-28T00:01:18.570Z,0
2023-04-28T00:02:58.317Z,0
2023-04-28T00:04:38.082Z,0
2023-04-28T00:06:17.854Z,0
2023-04-28T00:09:37.399Z,0
2023-04-28T00:11:17.144Z,0
2023-04-28T00:12:56.931Z,0
2023-04-28T00:14:36.691Z,0
2023-04-28T00:16:16.443Z,0
2023-04-28T00:17:56.214Z,0
2023-04-28T00:19:35.976Z,0
2023-04-28T00:21:15.757Z,0
2023-04-28T00:22:55.500Z,0
2023-04-28T00:26:15.027Z,0
2023-04-28T00:27:54.786Z,0
2023-04-28T00:29:34.557Z,0
2023-04-28T00:34:33.835Z,0
2023-04-28T00:36:13.609Z,0
2023-04-28T00:37:53.412Z,0
2023-04-28T00:39:33.141Z,0
2023-04-28T00:41:12.931Z,0
2023-04-28T00:42:52.663Z,0
2023-04-28T00:44:32.427Z,0
2023-04-28T00:47:51.962Z,0
2023-04-28T00:49:31.725Z,0
2023-04-28T00:51:11.476Z,0
2023-04-28T00:52:51.247Z,0
2023-04-28T00:54:31.001Z,0
2023-04-28T00:56:10.769Z,0
2023-04-28T00:57:50.544Z,0
2023-04-28T00:59:30.304Z,0
2023-04-28T01:01:10.098Z,0
2023-04-28T01:02:49.854Z,0
2023-04-28T01:04:29.598Z,0
2023-04-28T01:06:09.376Z,0
2023-04-28T01:07:49.113Z,0
2023-04-28T01:09:28.881Z,0
2023-04-28T01:11:08.651Z,0
2023-04-28T01:12:48.415Z,0
2023-04-28T01:14:28.178Z,0
2023-04-28T01:16:07.945Z,0
2023-04-28T01:17:47.707Z,0
2023-04-28T01:19:27.475Z,0
2023-04-28T01:21:07.226Z,0
2023-04-28T01:22:47.006Z,0
2023-04-28T01:26:06.524Z,0
2023-04-28T01:27:46.278Z,0
2023-04-28T01:29:26.050Z,0
2023-04-28T01:31:05.819Z,0
2023-04-28T01:32:45.568Z,0
2023-04-28T01:36:05.112Z,0
2023-04-28T01:37:44.866Z,0
2023-04-28T01:39:24.666Z,0
2023-04-28T01:41:04.389Z,0
2023-04-28T01:42:44.160Z,0
2023-04-28T01:44:23.929Z,0
2023-04-28T01:46:03.733Z,0
2023-04-28T01:47:43.472Z,0
2023-04-28T01:49:23.228Z,0
2023-04-28T01:51:02.998Z,0
2023-04-28T01:52:42.745Z,0
2023-04-28T01:54:22.510Z,0
2023-04-28T01:56:02.327Z,0
2023-04-28T01:57:42.053Z,0
2023-04-28T01:59:21.830Z,0
2023-04-28T02:01:01.554Z,0
2023-04-28T02:02:41.328Z,0
2023-04-28T02:04:21.085Z,0
2023-04-28T02:06:00.852Z,0
2023-04-28T02:07:40.631Z,0
2023-04-28T02:09:20.386Z,0
2023-04-28T02:11:00.136Z,0
2023-04-28T02:12:39.949Z,0
2023-04-28T02:14:19.696Z,0
2023-04-28T02:15:59.463Z,0
2023-04-28T02:17:39.245Z,0
2023-04-28T02:19:18.968Z,0
2023-04-28T02:20:58.720Z,0
2023-04-28T02:22:38.491Z,0
2023-04-28T02:24:18.250Z,0
2023-04-28T02:25:58.029Z,0
2023-04-28T02:27:37.778Z,0
2023-04-28T02:29:17.553Z,0
2023-04-28T02:30:57.295Z,0
2023-04-28T02:32:37.058Z,0
2023-04-28T02:34:16.839Z,0
2023-04-28T02:35:56.602Z,0
2023-04-28T02:37:36.372Z,0
2023-04-28T02:39:16.117Z,0
2023-04-28T02:40:55.895Z,0
2023-04-28T02:42:35.642Z,0
2023-04-28T02:44:15.453Z,0
2023-04-28T02:45:55.187Z,0
2023-04-28T02:47:34.967Z,0
2023-04-28T02:49:14.707Z,0
2023-04-28T02:50:54.476Z,0
2023-04-28T02:52:34.249Z,0
2023-04-28T02:54:13.996Z,0
2023-04-28T02:55:53.774Z,0
2023-04-28T02:57:33.536Z,0
2023-04-28T02:59:13.304Z,0
2023-04-28T03:00:53.069Z,0
2023-04-28T03:02:32.827Z,0
2023-04-28T03:04:12.579Z,0
2023-04-28T03:05:52.341Z,0
2023-04-28T03:07:32.114Z,0
2023-04-28T03:09:11.887Z,0
2023-04-28T03:10:51.645Z,0
2023-04-28T03:12:31.413Z,0
2023-04-28T03:15:50.936Z,0
2023-04-28T03:17:30.700Z,0
2023-04-28T03:19:10.464Z,0
2023-04-28T03:20:50.233Z,0
2023-04-28T03:22:29.994Z,0
2023-04-28T03:25:49.529Z,0
2023-04-28T03:27:29.276Z,0
2023-04-28T03:29:09.045Z,0
2023-04-28T03:30:48.798Z,0
2023-04-28T03:32:28.572Z,0
2023-04-28T03:34:08.319Z,0
2023-04-28T03:35:48.087Z,0
2023-04-28T03:39:07.656Z,0
2023-04-28T03:40:47.380Z,0
2023-04-28T03:42:27.154Z,0
2023-04-28T03:44:06.923Z,0
2023-04-28T03:45:46.672Z,0
2023-04-28T03:47:26.439Z,0
2023-04-28T03:49:06.218Z,0
2023-04-28T03:52:25.744Z,0.01
2023-04-28T03:54:05.497Z,0
2023-04-28T03:55:45.256Z,0
2023-04-28T03:57:25.029Z,0.01
2023-04-28T03:59:04.798Z,0.02
2023-04-28T04:00:44.565Z,0.02
2023-04-28T04:02:24.315Z,0.04
2023-04-28T04:04:04.089Z,0.03
2023-04-28T04:05:43.863Z,0.04
2023-04-28T04:09:03.370Z,0.05
2023-04-28T04:10:43.146Z,0.06
2023-04-28T04:12:22.896Z,0.07
2023-04-28T04:15:42.421Z,0.08
2023-04-28T04:17:22.212Z,0.09
2023-04-28T04:19:01.949Z,0.09
2023-04-28T04:20:41.738Z,0.09
2023-04-28T04:22:21.482Z,0.09
2023-04-28T04:24:01.232Z,0.1
2023-04-28T04:25:41.017Z,0.1
2023-04-28T04:27:20.784Z,0.1
2023-04-28T04:29:00.551Z,0.11
2023-04-28T04:30:40.301Z,0.11
2023-04-28T04:32:20.208Z,0.11
2023-04-28T04:33:59.975Z,0.11
2023-04-28T04:37:19.516Z,0.11
2023-04-28T04:38:59.276Z,0.11
2023-04-28T04:40:39.022Z,0.11
2023-04-28T04:42:18.798Z,0.1
2023-04-28T04:45:38.318Z,0.1
2023-04-28T04:48:57.855Z,0.09
2023-04-28T04:50:37.620Z,0.09
2023-04-28T04:52:17.373Z,0.1
2023-04-28T04:53:57.154Z,0.1
2023-04-28T04:55:36.951Z,0.1
2023-04-28T04:58:56.436Z,0.11
2023-04-28T05:00:36.212Z,0.11
2023-04-28T05:02:15.974Z,0.1
2023-04-28T05:03:55.724Z,0.12
2023-04-28T05:05:35.490Z,0.12
2023-04-28T05:08:55.153Z,0.13
2023-04-28T05:10:34.908Z,0.13
2023-04-28T05:12:14.675Z,0.13
2023-04-28T05:13:54.418Z,0.13
2023-04-28T05:15:34.190Z,0.13
2023-04-28T05:17:13.947Z,0.14
2023-04-28T05:18:53.721Z,0.14
2023-04-28T05:20:33.478Z,0.13
2023-04-28T05:22:13.248Z,0.14
2023-04-28T05:23:53.000Z,0.14
2023-04-28T05:25:32.802Z,0.14
2023-04-28T05:27:12.542Z,0.15
2023-04-28T05:28:52.304Z,0.15
2023-04-28T05:30:32.064Z,0.15
2023-04-28T05:32:11.831Z,0.16
2023-04-28T05:33:51.608Z,0.15
2023-04-28T05:35:31.359Z,0.16
2023-04-28T05:37:11.123Z,0.17
2023-04-28T05:38:50.877Z,0.17
2023-04-28T05:40:30.662Z,0.17
2023-04-28T05:42:10.411Z,0.18
2023-04-28T05:43:50.170Z,0.17
2023-04-28T05:45:29.949Z,0.18
2023-04-28T05:47:09.709Z,0.17
2023-04-28T05:48:49.468Z,0.16
2023-04-28T05:50:29.230Z,0.17
2023-04-28T05:52:08.988Z,0.19
2023-04-28T05:53:48.761Z,0.18
2023-04-28T05:55:28.529Z,0.18
2023-04-28T05:57:08.305Z,0.2
2023-04-28T05:58:48.047Z,0.18
2023-04-28T06:00:27.860Z,0.19
2023-04-28T06:02:07.583Z,0.2
2023-04-28T06:03:47.344Z,0.23
2023-04-28T06:05:27.121Z,0.22
2023-04-28T06:08:46.735Z,0.25
2023-04-28T06:10:26.450Z,0.27
2023-04-28T06:12:06.174Z,0
2023-04-28T06:13:45.925Z,0.1
2023-04-28T06:15:25.706Z,0.1
2023-04-28T06:17:05.451Z,0.1
2023-04-28T06:18:45.221Z,0.1
2023-04-28T06:20:24.975Z,0.09
2023-04-28T06:22:04.746Z,0.09
2023-04-28T06:23:44.501Z,0.09
2023-04-28T06:25:24.374Z,0.09
2023-04-28T06:27:04.069Z,0.09
2023-04-28T06:28:43.832Z,0.08
2023-04-28T06:30:23.654Z,0.09
2023-04-28T06:32:03.323Z,0.09
2023-04-28T06:33:43.088Z,0.09
2023-04-28T06:35:22.858Z,0.09
2023-04-28T06:37:02.624Z,0.08
2023-04-28T06:38:42.383Z,0.08
2023-04-28T06:40:22.146Z,0.08
2023-04-28T06:42:01.901Z,0.08
2023-04-28T06:43:41.667Z,0.08
2023-04-28T06:45:21.451Z,0.08
2023-04-28T06:48:40.969Z,0.08
2023-04-28T06:52:00.485Z,0.08
2023-04-28T06:53:40.267Z,0.08
2023-04-28T06:55:20.027Z,0.08
2023-04-28T06:56:59.789Z,0.07
2023-04-28T06:58:39.553Z,0.08
2023-04-28T07:00:19.380Z,0.07
2023-04-28T07:01:59.075Z,0.07
2023-04-28T07:03:38.840Z,0.07
2023-04-28T07:05:18.619Z,0.08
2023-04-28T07:06:58.439Z,0.07
2023-04-28T07:08:38.213Z,0.07
2023-04-28T07:10:17.956Z,0.07
2023-04-28T07:13:37.466Z,0.07
2023-04-28T07:16:56.953Z,0.07
2023-04-28T07:18:36.856Z,0.07
2023-04-28T07:20:16.487Z,0.07
2023-04-28T07:21:56.247Z,0.07
2023-04-28T07:23:36.004Z,0.07
2023-04-28T07:25:15.779Z,0.07
2023-04-28T07:28:35.350Z,0.07
2023-04-28T07:30:15.060Z,0.07
2023-04-28T07:31:54.845Z,0.06
2023-04-28T07:33:34.677Z,0.06
2023-04-28T07:35:14.366Z,0.06
2023-04-28T07:36:54.120Z,0.06
2023-04-28T07:38:33.890Z,0.06
2023-04-28T07:40:13.674Z,0.06
2023-04-28T07:41:53.541Z,0.06
2023-04-28T07:43:33.192Z,0.06
2023-04-28T07:45:13.039Z,0.06
2023-04-28T07:46:52.710Z,0.06
2023-04-28T07:48:32.478Z,0.06
2023-04-28T07:50:12.241Z,0.06
2023-04-28T07:51:51.980Z,0.06
2023-04-28T07:53:31.766Z,0.06
2023-04-28T07:55:11.510Z,0.06
2023-04-28T07:56:51.282Z,0.05
2023-04-28T07:58:31.040Z,0.06
2023-04-28T08:00:10.811Z,0.06
2023-04-28T08:01:50.576Z,0.06
2023-04-28T08:03:30.326Z,0.05
2023-04-28T08:05:10.107Z,0.05
2023-04-28T08:06:49.870Z,0.05
2023-04-28T08:08:29.632Z,0.05
2023-04-28T08:10:09.394Z,0.05
2023-04-28T08:11:49.220Z,0
2023-04-28T08:13:28.910Z,0
2023-04-28T08:15:08.678Z,0
2023-04-28T08:16:48.457Z,0.03
2023-04-28T08:18:28.223Z,0.03
2023-04-28T08:20:07.986Z,0.03
2023-04-28T08:21:47.737Z,0.03
2023-04-28T08:23:27.502Z,0.03
2023-04-28T08:25:07.273Z,0.03
2023-04-28T08:26:47.033Z,0.03
2023-04-28T08:28:26.864Z,0.03
2023-04-28T08:30:06.574Z,0.03
2023-04-28T08:31:46.332Z,0.03
2023-04-28T08:33:26.083Z,0.03
2023-04-28T08:35:05.842Z,0.03
2023-04-28T08:36:45.648Z,0.03
2023-04-28T08:38:25.378Z,0.03
2023-04-28T08:40:05.141Z,0.03
2023-04-28T08:41:44.902Z,0.03
2023-04-28T08:45:04.425Z,0.03
2023-04-28T08:46:44.197Z,0.03
2023-04-28T08:48:23.971Z,0.03
2023-04-28T08:50:03.740Z,0.04
2023-04-28T08:51:43.494Z,0.03
2023-04-28T08:53:23.402Z,0.03
2023-04-28T08:55:03.155Z,0.03
2023-04-28T08:56:42.793Z,0.03
2023-04-28T08:58:22.602Z,0.03
2023-04-28T09:00:02.467Z,0.03
2023-04-28T09:01:42.273Z,0.03
2023-04-28T09:03:22.032Z,0.03
2023-04-28T09:05:01.594Z,0.03
2023-04-28T09:06:41.450Z,0.03
2023-04-28T09:08:21.347Z,0.03
2023-04-28T09:10:00.892Z,0.03
2023-04-28T09:11:40.662Z,0.03
2023-04-28T09:13:20.492Z,0.03
2023-04-28T09:15:00.297Z,0.03
2023-04-28T09:16:39.960Z,0.03
2023-04-28T09:18:19.749Z,0.03
2023-04-28T09:19:59.547Z,0.03
2023-04-28T09:21:39.386Z,0.03
2023-04-28T09:23:19.041Z,0.03
2023-04-28T09:24:58.871Z,0.03
2023-04-28T09:26:38.538Z,0.03
2023-04-28T09:28:18.282Z,0.03
2023-04-28T09:29:58.182Z,0.03
2023-04-28T09:31:37.826Z,0.03
2023-04-28T09:33:17.590Z,0.03
2023-04-28T09:34:57.346Z,0.03
2023-04-28T09:36:37.125Z,0.03
2023-04-28T09:38:17.051Z,0.03
2023-04-28T09:39:56.657Z,0.03
2023-04-28T09:41:36.621Z,0.03
2023-04-28T09:43:16.174Z,0.03
2023-04-28T09:44:55.929Z,0.03
2023-04-28T09:46:35.748Z,0.03
2023-04-28T09:48:15.462Z,0.03
2023-04-28T09:49:55.312Z,0.03
2023-04-28T09:51:35.082Z,0.03
2023-04-28T09:53:14.745Z,0.03
2023-04-28T09:54:54.517Z,0.03
2023-04-28T09:56:34.327Z,0.03
2023-04-28T09:58:14.060Z,0.03
2023-04-28T09:59:53.835Z,0.03
2023-04-28T10:01:33.628Z,0.03
2023-04-28T10:03:13.352Z,0.03
2023-04-28T10:04:53.106Z,0.03
2023-04-28T10:06:32.866Z,0.03
2023-04-28T10:08:12.640Z,0.03
2023-04-28T10:09:52.406Z,0.03
2023-04-28T10:11:32.160Z,0.03
2023-04-28T10:13:12.039Z,0.03
2023-04-28T10:14:51.684Z,0.03
2023-04-28T10:16:31.484Z,0.03
2023-04-28T10:18:11.310Z,0.03
2023-04-28T10:19:50.984Z,0.03
2023-04-28T10:21:30.766Z,0.03
2023-04-28T10:23:10.529Z,0.03
2023-04-28T10:24:50.283Z,0.03
2023-04-28T10:28:09.831Z,0.03
2023-04-28T10:29:49.613Z,0.03
2023-04-28T10:31:29.348Z,0.03
2023-04-28T10:33:09.122Z,0.03
2023-04-28T10:34:48.980Z,0.03
2023-04-28T10:36:28.651Z,0.03
2023-04-28T10:38:08.589Z,0.03
2023-04-28T10:39:48.222Z,0.03
2023-04-28T10:41:27.918Z,0.03
2023-04-28T10:43:07.725Z,0.03
2023-04-28T10:44:47.511Z,0.03
2023-04-28T10:46:27.248Z,0.03
2023-04-28T10:48:07.040Z,0.02
2023-04-28T10:49:46.750Z,0.02
2023-04-28T10:51:26.641Z,0.03
2023-04-28T10:53:06.276Z,0.03
2023-04-28T10:54:46.029Z,0.03
2023-04-28T10:56:25.811Z,0.02
2023-04-28T10:58:05.562Z,0.03
2023-04-28T10:59:45.317Z,0.03
2023-04-28T11:01:25.093Z,0.02
2023-04-28T11:03:04.842Z,0.02
2023-04-28T11:04:44.617Z,0.03
2023-04-28T11:06:24.409Z,0.03
2023-04-28T11:08:04.141Z,0.02
2023-04-28T11:09:43.895Z,0.02
2023-04-28T11:11:23.679Z,0.03
2023-04-28T11:13:03.447Z,0.02
2023-04-28T11:14:43.291Z,0.03
2023-04-28T11:16:22.956Z,0.02
2023-04-28T11:18:02.720Z,0.03
2023-04-28T11:19:42.500Z,0.02
2023-04-28T11:21:22.260Z,0.03
2023-04-28T11:23:02.012Z,0.02
2023-04-28T11:24:41.804Z,0.02
2023-04-28T11:26:21.560Z,0.03
2023-04-28T11:28:01.344Z,0.03
2023-04-28T11:29:41.092Z,0.02
2023-04-28T11:31:20.845Z,0.02
2023-04-28T11:33:00.597Z,0.03
2023-04-28T11:34:40.471Z,0.02
2023-04-28T11:36:20.123Z,0.02
2023-04-28T11:37:59.897Z,0.02
2023-04-28T11:39:39.654Z,0.03
2023-04-28T11:41:19.434Z,0.02
2023-04-28T11:42:59.174Z,0.03
2023-04-28T11:44:39.052Z,0.03
2023-04-28T11:46:18.767Z,0.03
2023-04-28T11:47:58.597Z,0.03
2023-04-28T11:49:38.403Z,0.03
2023-04-28T11:51:18.127Z,0.03
2023-04-28T11:52:57.805Z,0.03
2023-04-28T11:54:37.661Z,0.02
2023-04-28T11:57:57.194Z,0.03
2023-04-28T11:59:36.945Z,0.02
2023-04-28T12:01:16.663Z,0.02
2023-04-28T12:02:56.483Z,0.02
2023-04-28T12:04:36.118Z,0.02
2023-04-28T12:06:15.865Z,0.02
2023-04-28T12:07:55.645Z,0.02
2023-04-28T12:09:35.404Z,0.02
2023-04-28T12:11:15.158Z,0.02
2023-04-28T12:12:55.076Z,0.02
2023-04-28T12:14:34.828Z,0.03
2023-04-28T12:17:54.333Z,0.03
2023-04-28T12:19:34.014Z,0.02
2023-04-28T12:21:13.808Z,0.02
2023-04-28T12:22:53.516Z,0.02
2023-04-28T12:24:33.374Z,0.02
2023-04-28T12:26:13.058Z,0.02
2023-04-28T12:27:52.835Z,0.02
2023-04-28T12:29:32.587Z,0.02
2023-04-28T12:31:12.378Z,0.02
2023-04-28T12:32:52.163Z,0.02
2023-04-28T12:34:32.005Z,0.02
2023-04-28T12:37:51.397Z,0.02
2023-04-28T12:39:31.158Z,0.02
2023-04-28T12:41:10.935Z,0.02
2023-04-28T12:42:50.690Z,0.03
2023-04-28T12:44:30.453Z,0.02
2023-04-28T12:47:49.987Z,0.02
2023-04-28T12:52:49.321Z,0.02
2023-04-28T12:54:29.052Z,0.02
2023-04-28T12:56:08.808Z,0.02
2023-04-28T12:57:48.572Z,0.02
2023-04-28T12:59:28.336Z,0.02
2023-04-28T13:01:08.112Z,0.03
2023-04-28T13:02:47.862Z,0.03
2023-04-28T13:04:27.678Z,0.02
2023-04-28T13:06:07.400Z,0.03
2023-04-28T13:07:47.176Z,0.03
2023-04-28T13:09:26.918Z,0.03
2023-04-28T13:11:06.679Z,0.03
2023-04-28T13:12:46.435Z,0.03
2023-04-28T13:14:26.231Z,0.02
2023-04-28T13:16:05.971Z,0.02
2023-04-28T13:17:45.767Z,0.03
2023-04-28T13:19:25.514Z,0.02
2023-04-28T13:21:05.263Z,0.03
2023-04-28T13:22:45.040Z,0.02
2023-04-28T13:24:24.798Z,0.02
2023-04-28T13:26:04.556Z,0.03
2023-04-28T13:27:44.333Z,0.02
2023-04-28T13:29:24.090Z,0.02
2023-04-28T13:31:03.869Z,0.02
2023-04-28T13:32:43.622Z,0.02
2023-04-28T13:34:23.376Z,0.02
2023-04-28T13:36:03.179Z,0.03
2023-04-28T13:37:42.932Z,0.02
2023-04-28T13:39:22.672Z,0.02
2023-04-28T13:41:02.436Z,0.02
2023-04-28T13:42:42.198Z,0.02
2023-04-28T13:44:21.958Z,0.03
2023-04-28T13:46:01.715Z,0.03
2023-04-28T13:47:41.583Z,0.02
2023-04-28T13:49:21.256Z,0.03
2023-04-28T13:51:01.013Z,0.02
2023-04-28T13:52:40.774Z,0.02
2023-04-28T13:54:20.541Z,0.02
2023-04-28T13:56:00.312Z,0.03
2023-04-28T13:57:40.067Z,0.02
2023-04-28T13:59:19.822Z,0.03
2023-04-28T14:00:59.601Z,0.02
2023-04-28T14:02:39.401Z,0.02
2023-04-28T14:04:19.143Z,0.02
2023-04-28T14:05:58.881Z,0.02
2023-04-28T14:07:38.691Z,0.02
2023-04-28T14:09:18.441Z,0.03
2023-04-28T14:10:58.178Z,0.02
2023-04-28T14:12:37.931Z,0.02
2023-04-28T14:14:17.721Z,0.02
2023-04-28T14:15:57.479Z,0.02
2023-04-28T14:17:37.241Z,0.02
2023-04-28T14:19:17.085Z,0.02
2023-04-28T14:20:56.764Z,0.02
2023-04-28T14:22:36.539Z,0.03
2023-04-28T14:24:16.299Z,0.02
2023-04-28T14:27:35.847Z,0.02
2023-04-28T14:29:15.587Z,0.02
2023-04-28T14:30:55.342Z,0.03
2023-04-28T14:32:35.105Z,0.02
2023-04-28T14:34:14.885Z,0.03
2023-04-28T14:37:34.425Z,0.02
2023-04-28T14:39:14.162Z,0.02
2023-04-28T14:40:53.937Z,0.02
2023-04-28T14:42:33.729Z,0.02
2023-04-28T14:44:13.476Z,0.02
2023-04-28T14:45:53.232Z,0.02
2023-04-28T14:47:33.030Z,0.02
2023-04-28T14:49:12.790Z,0.02
2023-04-28T14:50:52.518Z,0.02
2023-04-28T14:52:32.380Z,0.02
2023-04-28T14:54:12.039Z,0.02
2023-04-28T14:57:31.576Z,0.02
2023-04-28T14:59:11.329Z,0.02
2023-04-28T15:00:51.300Z,0.02
2023-04-28T15:02:30.934Z,0.02
2023-04-28T15:04:10.715Z,0.02
2023-04-28T15:05:50.419Z,0.02
2023-04-28T15:07:30.315Z,0.02
2023-04-28T15:09:09.928Z,0.02
2023-04-28T15:10:49.699Z,0.02
2023-04-28T15:12:29.448Z,0.02
2023-04-28T15:14:09.236Z,0.02
2023-04-28T15:15:48.985Z,0.02
2023-04-28T15:17:28.830Z,0.02
2023-04-28T15:19:08.543Z,0.02
2023-04-28T15:20:48.271Z,0.02
2023-04-28T15:22:28.042Z,0.02
2023-04-28T15:24:07.798Z,0.02
2023-04-28T15:25:47.572Z,0.02
2023-04-28T15:27:27.325Z,0.02
2023-04-28T15:29:07.114Z,0.02
2023-04-28T15:30:46.849Z,0.02
2023-04-28T15:32:26.627Z,0.02
2023-04-28T15:34:06.385Z,0.02
2023-04-28T15:35:46.251Z,0.02
2023-04-28T15:37:25.896Z,0.02
2023-04-28T15:39:05.706Z,0.02
2023-04-28T15:40:45.429Z,0.03
2023-04-28T15:44:04.972Z,0.02
2023-04-28T15:45:44.722Z,0.03
2023-04-28T15:47:24.485Z,0.03
2023-04-28T15:49:04.266Z,0.02
2023-04-28T15:50:44.134Z,0.02
2023-04-28T15:52:23.787Z,0.02
2023-04-28T15:54:03.550Z,0.02
2023-04-28T15:55:43.316Z,0.02
2023-04-28T15:57:23.072Z,0.02
2023-04-28T15:59:02.851Z,0.02
2023-04-28T16:00:42.593Z,0.02
2023-04-28T16:02:22.374Z,0.02
2023-04-28T16:04:02.158Z,0.02
2023-04-28T16:05:41.909Z,0.02
2023-04-28T16:07:21.656Z,0.02
2023-04-28T16:09:01.422Z,0.03
2023-04-28T16:10:41.187Z,0.02
2023-04-28T16:12:20.959Z,0.02
2023-04-28T16:14:00.705Z,0.02
2023-04-28T16:15:40.494Z,0.02
2023-04-28T16:17:20.236Z,0.02
2023-04-28T16:19:00.009Z,0.02
2023-04-28T16:20:39.771Z,0.02
2023-04-28T16:22:19.524Z,0.02
2023-04-28T16:23:59.305Z,0.02
2023-04-28T16:27:18.827Z,0.02
2023-04-28T16:28:58.601Z,0.02
2023-04-28T16:30:38.407Z,0.02
2023-04-28T16:32:18.116Z,0.02
2023-04-28T16:33:57.890Z,0.02
2023-04-28T16:37:17.414Z,0.02
2023-04-28T16:38:57.185Z,0.02
2023-04-28T16:40:36.946Z,0.02
2023-04-28T16:42:16.704Z,0.02
2023-04-28T16:43:56.475Z,0.02
2023-04-28T16:47:15.984Z,0.02
2023-04-28T16:48:55.750Z,0.02
2023-04-28T16:50:35.525Z,0.02
2023-04-28T16:52:15.286Z,0.02
2023-04-28T16:55:34.817Z,0.02
2023-04-28T16:57:14.584Z,0.03
2023-04-28T16:58:54.342Z,0.02
2023-04-28T17:00:34.119Z,0.03
2023-04-28T17:02:13.873Z,0.03
2023-04-28T17:03:53.637Z,0.03
2023-04-28T17:05:33.399Z,0.03
2023-04-28T17:07:13.179Z,0.02
2023-04-28T17:08:52.938Z,0.02
2023-04-28T17:10:32.696Z,0.02
2023-04-28T17:12:12.456Z,0.02
2023-04-28T17:13:52.221Z,0.02
2023-04-28T17:17:11.773Z,0.03
2023-04-28T17:18:51.495Z,0.02
2023-04-28T17:20:31.264Z,0.02
2023-04-28T17:22:11.041Z,0.03
2023-04-28T17:23:50.798Z,0.02
2023-04-28T17:25:30.556Z,0.03
2023-04-28T17:27:10.322Z,0.02
2023-04-28T17:28:50.087Z,0.02
2023-04-28T17:30:29.863Z,0.03
2023-04-28T17:32:09.621Z,0.03
2023-04-28T17:33:49.424Z,0.03
2023-04-28T17:35:29.143Z,0.03
2023-04-28T17:37:08.908Z,0.02
2023-04-28T17:38:48.688Z,0.02
2023-04-28T17:40:28.453Z,0.02
2023-04-28T17:42:08.207Z,0.02
2023-04-28T17:43:47.982Z,0.01
2023-04-28T17:45:27.745Z,0
2023-04-28T17:47:07.495Z,0.02
2023-04-28T17:48:47.320Z,0.02
2023-04-28T17:50:27.028Z,0.03
2023-04-28T17:52:06.776Z,0.02
2023-04-28T17:53:46.671Z,0.03
2023-04-28T17:55:26.318Z,0.03
2023-04-28T17:57:06.116Z,0.04
2023-04-28T17:58:45.873Z,0.03
2023-04-28T18:00:25.683Z,0.03
2023-04-28T18:02:05.393Z,0.01
2023-04-28T18:03:45.204Z,0.01
2023-04-28T18:05:24.893Z,0.02
2023-04-28T18:07:04.673Z,0
2023-04-28T18:08:44.432Z,0
2023-04-28T18:10:24.191Z,0
2023-04-28T18:12:03.951Z,0
2023-04-28T18:13:43.710Z,0
2023-04-28T18:15:23.482Z,0
2023-04-28T18:17:03.296Z,0
2023-04-28T18:18:43.024Z,0
2023-04-28T18:22:02.541Z,0
2023-04-28T18:25:22.104Z,0
2023-04-28T18:27:01.838Z,0
2023-04-28T18:28:41.600Z,0
2023-04-28T18:30:21.372Z,0
2023-04-28T18:33:40.893Z,0
2023-04-28T18:37:00.627Z,0
2023-04-28T18:38:40.348Z,0
2023-04-28T18:40:19.929Z,0
2023-04-28T18:41:59.904Z,0
2023-04-28T18:43:39.637Z,0
2023-04-28T18:45:19.395Z,0
2023-04-28T18:46:59.074Z,0
2023-04-28T18:48:38.764Z,0
2023-04-28T18:50:18.513Z,0
2023-04-28T18:51:58.283Z,0
2023-04-28T18:53:38.066Z,0
2023-04-28T18:55:17.833Z,0
2023-04-28T18:56:57.583Z,0
2023-04-28T18:58:37.336Z,0
2023-04-28T19:00:17.111Z,0
2023-04-28T19:01:56.858Z,0
2023-04-28T19:03:36.620Z,0
2023-04-28T19:05:16.396Z,0
2023-04-28T19:06:56.164Z,0
2023-04-28T19:08:35.920Z,0
2023-04-28T19:10:15.688Z,0
2023-04-28T19:11:55.462Z,0
2023-04-28T19:13:35.229Z,0
2023-04-28T19:15:14.973Z,0
2023-04-28T19:16:54.749Z,0
2023-04-28T19:18:34.510Z,0
2023-04-28T19:20:14.278Z,0
2023-04-28T19:21:54.048Z,0
2023-04-28T19:23:33.810Z,0
2023-04-28T19:25:13.562Z,0
2023-04-28T19:26:53.334Z,0
2023-04-28T19:28:33.102Z,0
2023-04-28T19:30:12.876Z,0
2023-04-28T19:31:52.643Z,0
2023-04-28T19:33:32.406Z,0
2023-04-28T19:36:51.931Z,0
2023-04-28T19:38:31.691Z,0
2023-04-28T19:40:11.450Z,0
2023-04-28T19:41:51.204Z,0
2023-04-28T19:43:30.967Z,0
2023-04-28T19:46:50.496Z,0
2023-04-28T19:48:30.276Z,0
2023-04-28T19:50:10.025Z,0
2023-04-28T19:51:49.791Z,0
2023-04-28T19:53:29.561Z,0
2023-04-28T19:55:09.332Z,0
2023-04-28T19:56:49.112Z,0
2023-04-28T19:58:28.848Z,0
2023-04-28T20:00:08.631Z,0
2023-04-28T20:01:48.366Z,0
2023-04-28T20:03:28.136Z,0
2023-04-28T20:05:07.943Z,0
2023-04-28T20:06:47.657Z,0
2023-04-28T20:08:27.429Z,0
2023-04-28T20:10:07.220Z,0
2023-04-28T20:11:46.977Z,0
2023-04-28T20:13:26.730Z,0
2023-04-28T20:15:06.494Z,0
2023-04-28T20:16:46.239Z,0
2023-04-28T20:18:26.033Z,0
2023-04-28T20:20:05.784Z,0
2023-04-28T20:21:45.556Z,0
2023-04-28T20:23:25.303Z,0
2023-04-28T20:25:05.069Z,0
2023-04-28T20:26:44.834Z,0
2023-04-28T20:28:24.600Z,0
2023-04-28T20:30:04.349Z,0
2023-04-28T20:31:44.130Z,0
2023-04-28T20:33:23.891Z,0
2023-04-28T20:35:03.664Z,0
2023-04-28T20:36:43.419Z,0
2023-04-28T20:38:23.184Z,0
2023-04-28T20:40:02.949Z,0
2023-04-28T20:41:42.709Z,0
2023-04-28T20:43:22.481Z,0
2023-04-28T20:45:02.250Z,0
2023-04-28T20:48:21.753Z,0
2023-04-28T20:50:01.575Z,0
2023-04-28T20:51:41.312Z,0
2023-04-28T20:53:21.067Z,0
2023-04-28T20:55:00.845Z,0
2023-04-28T20:56:40.588Z,0
2023-04-28T20:58:20.339Z,0
2023-04-28T21:00:00.120Z,0
2023-04-28T21:01:39.930Z,0
2023-04-28T21:03:19.640Z,0
2023-04-28T21:04:59.407Z,0
2023-04-28T21:06:39.167Z,0
2023-04-28T21:08:18.932Z,0
2023-04-28T21:09:58.694Z,0
2023-04-28T21:11:38.462Z,0
2023-04-28T21:13:18.216Z,0
2023-04-28T21:14:57.998Z,0
2023-04-28T21:16:37.760Z,0
2023-04-28T21:18:17.511Z,0
2023-04-28T21:19:57.284Z,0
2023-04-28T21:21:37.037Z,0
2023-04-28T21:24:56.578Z,0
2023-04-28T21:26:36.357Z,0
2023-04-28T21:28:16.099Z,0
2023-04-28T21:29:55.864Z,0
2023-04-28T21:31:35.629Z,0
2023-04-28T21:33:15.387Z,0
2023-04-28T21:34:55.162Z,0
2023-04-28T21:36:34.917Z,0
2023-04-28T21:38:14.685Z,0
2023-04-28T21:39:54.455Z,0
2023-04-28T21:41:34.213Z,0
2023-04-28T21:43:13.986Z,0
2023-04-28T21:44:53.742Z,0
2023-04-28T21:46:33.502Z,0
2023-04-28T21:48:13.260Z,0
2023-04-28T21:49:53.022Z,0
2023-04-28T21:51:32.792Z,0
2023-04-28T21:53:12.565Z,0
2023-04-28T21:54:52.319Z,0
2023-04-28T21:56:32.081Z,0
2023-04-28T21:58:11.851Z,0
2023-04-28T21:59:51.617Z,0
2023-04-28T22:01:31.386Z,0
2023-04-28T22:03:11.123Z,0
2023-04-28T22:04:50.904Z,0
2023-04-28T22:06:30.675Z,0
2023-04-28T22:08:10.439Z,0
2023-04-28T22:09:50.190Z,0
2023-04-28T22:11:29.960Z,0
2023-04-28T22:13:09.724Z,0
2023-04-28T22:14:49.501Z,0
2023-04-28T22:16:29.245Z,0
2023-04-28T22:18:09.012Z,0
2023-04-28T22:19:48.810Z,0
2023-04-28T22:21:28.547Z,0
2023-04-28T22:23:08.304Z,0
2023-04-28T22:24:48.062Z,0
2023-04-28T22:26:27.859Z,0
2023-04-28T22:28:07.591Z,0
2023-04-28T22:29:47.365Z,0
2023-04-28T22:33:06.882Z,0
2023-04-28T22:34:46.670Z,0
2023-04-28T22:36:26.413Z,0
2023-04-28T22:38:06.180Z,0
2023-04-28T22:39:45.985Z,0
2023-04-28T22:41:25.708Z,0
2023-04-28T22:43:05.492Z,0
2023-04-28T22:44:45.232Z,0
2023-04-28T22:46:25.010Z,0
2023-04-28T22:48:04.771Z,0
2023-04-28T22:49:44.529Z,0
2023-04-28T22:51:24.290Z,0
2023-04-28T22:53:04.041Z,0
2023-04-28T22:54:43.817Z,0
2023-04-28T22:56:23.584Z,0
2023-04-28T22:58:03.340Z,0
2023-04-28T22:59:43.113Z,0
2023-04-28T23:01:22.873Z,0
2023-04-28T23:03:02.670Z,0
2023-04-28T23:04:42.409Z,0
2023-04-28T23:06:22.159Z,0
2023-04-28T23:08:01.919Z,0
2023-04-28T23:09:41.692Z,0
2023-04-28T23:11:21.464Z,0
2023-04-28T23:13:01.219Z,0
2023-04-28T23:14:41.009Z,0
2023-04-28T23:16:20.755Z,0
2023-04-28T23:18:00.519Z,0
2023-04-28T23:19:40.318Z,0
2023-04-28T23:21:20.045Z,0
2023-04-28T23:22:59.804Z,0
2023-04-28T23:24:39.674Z,0
2023-04-28T23:26:19.331Z,0
2023-04-28T23:27:59.094Z,0
2023-04-28T23:29:38.863Z,0
2023-04-28T23:32:58.392Z,0
2023-04-28T23:34:38.150Z,0
2023-04-28T23:36:17.909Z,0
2023-04-28T23:37:57.693Z,0
2023-04-28T23:39:37.449Z,0
2023-04-28T23:41:17.224Z,0
2023-04-28T23:42:56.959Z,0
2023-04-28T23:44:36.757Z,0
2023-04-28T23:46:16.495Z,0
2023-04-28T23:47:56.263Z,0
2023-04-28T23:49:36.028Z,0
2023-04-28T23:51:15.797Z,0
2023-04-28T23:52:55.564Z,0
2023-04-28T23:54:35.342Z,0
2023-04-28T23:56:15.082Z,0
2023-04-28T23:57:54.849Z,0
2023-04-28T23:59:34.609Z,0
